createdAt,value
2018-04-07T00:00:30.128Z,6.64
2018-04-07T00:01:30.232Z,6.60
2018-04-07T00:02:30.161Z,6.59
2018-04-07T00:03:30.250Z,6.56
2018-04-07T00:04:30.256Z,6.56
2018-04-07T00:05:30.172Z,6.57
2018-04-07T00:06:30.197Z,6.51
2018-04-07T00:07:30.198Z,6.49
2018-04-07T00:08:30.160Z,6.47
2018-04-07T00:09:30.292Z,6.49
2018-04-07T00:10:30.164Z,6.51
2018-04-07T00:11:30.145Z,6.51
2018-04-07T00:12:30.257Z,6.47
2018-04-07T00:13:30.197Z,6.49
2018-04-07T00:14:30.137Z,6.56
2018-04-07T00:15:30.263Z,6.59
2018-04-07T00:16:30.262Z,6.57
2018-04-07T00:17:30.207Z,6.56
2018-04-07T00:18:30.176Z,6.60
2018-04-07T00:19:30.282Z,6.63
2018-04-07T00:20:30.231Z,6.61
2018-04-07T00:21:30.258Z,6.63
2018-04-07T00:22:30.241Z,6.64
2018-04-07T00:23:30.148Z,6.66
2018-04-07T00:24:30.265Z,6.71
2018-04-07T00:25:30.174Z,6.72
2018-04-07T00:26:30.272Z,6.70
2018-04-07T00:27:30.220Z,6.67
2018-04-07T00:28:30.209Z,6.66
2018-04-07T00:29:30.221Z,6.63
2018-04-07T00:30:30.157Z,6.61
2018-04-07T00:31:30.180Z,6.59
2018-04-07T00:32:30.158Z,6.55
2018-04-07T00:33:30.213Z,6.51
2018-04-07T00:34:30.317Z,6.45
2018-04-07T00:35:30.153Z,6.41
2018-04-07T00:36:30.183Z,6.41
2018-04-07T00:37:30.278Z,6.41
2018-04-07T00:38:30.215Z,6.44
2018-04-07T00:39:30.164Z,6.43
2018-04-07T00:40:30.272Z,6.40
2018-04-07T00:41:30.184Z,6.40
2018-04-07T00:42:30.249Z,6.38
2018-04-07T00:43:30.252Z,6.40
2018-04-07T00:44:30.276Z,6.37
2018-04-07T00:45:30.163Z,6.36
2018-04-07T00:46:30.187Z,6.41
2018-04-07T00:47:30.224Z,6.44
2018-04-07T00:48:30.233Z,6.41
2018-04-07T00:49:30.281Z,6.38
2018-04-07T00:50:30.231Z,6.33
2018-04-07T00:51:30.276Z,6.29
2018-04-07T00:52:30.190Z,6.27
2018-04-07T00:53:30.280Z,6.25
2018-04-07T00:54:30.284Z,6.20
2018-04-07T00:55:30.284Z,6.15
2018-04-07T00:56:30.167Z,6.09
2018-04-07T00:57:30.280Z,6.00
2018-04-07T00:58:30.228Z,5.93
2018-04-07T00:59:30.237Z,5.89
2018-04-07T01:00:30.198Z,5.82
2018-04-07T01:01:30.205Z,5.75
2018-04-07T01:02:30.291Z,5.68
2018-04-07T01:03:30.299Z,5.62
2018-04-07T01:04:30.290Z,5.59
2018-04-07T01:05:30.240Z,5.55
2018-04-07T01:06:30.199Z,5.51
2018-04-07T01:07:30.291Z,5.49
2018-04-07T01:08:30.264Z,5.52
2018-04-07T01:09:30.207Z,5.55
2018-04-07T01:10:30.242Z,5.53
2018-04-07T01:11:30.178Z,5.52
2018-04-07T01:12:30.272Z,5.51
2018-04-07T01:13:30.295Z,5.49
2018-04-07T01:14:30.242Z,5.53
2018-04-07T01:15:30.203Z,5.53
2018-04-07T01:16:30.289Z,5.55
2018-04-07T01:17:30.181Z,5.53
2018-04-07T01:18:30.302Z,5.51
2018-04-07T01:19:30.298Z,5.49
2018-04-07T01:20:30.245Z,5.45
2018-04-07T01:21:30.276Z,5.40
2018-04-07T01:22:30.255Z,5.35
2018-04-07T01:23:30.303Z,5.30
2018-04-07T01:24:30.302Z,5.25
2018-04-07T01:25:30.300Z,5.22
2018-04-07T01:26:30.184Z,5.22
2018-04-07T01:27:30.256Z,5.22
2018-04-07T01:28:30.189Z,5.19
2018-04-07T01:29:30.272Z,5.19
2018-04-07T01:30:30.300Z,5.18
2018-04-07T01:31:30.301Z,5.15
2018-04-07T01:32:30.189Z,5.14
2018-04-07T01:33:30.299Z,5.11
2018-04-07T01:34:30.314Z,5.11
2018-04-07T01:35:30.259Z,5.11
2018-04-07T01:36:30.309Z,5.11
2018-04-07T01:37:30.315Z,5.09
2018-04-07T01:38:30.315Z,5.10
2018-04-07T01:39:30.201Z,5.09
2018-04-07T01:40:30.306Z,5.06
2018-04-07T01:41:30.310Z,5.06
2018-04-07T01:42:30.305Z,5.03
2018-04-07T01:43:30.310Z,4.99
2018-04-07T01:44:30.311Z,4.93
2018-04-07T01:45:30.310Z,4.88
2018-04-07T01:46:30.269Z,4.87
2018-04-07T01:47:30.323Z,4.84
2018-04-07T01:48:30.345Z,4.82
2018-04-07T01:49:30.266Z,4.84
2018-04-07T01:50:30.318Z,4.78
2018-04-07T01:51:30.314Z,4.75
2018-04-07T01:52:30.317Z,4.73
2018-04-07T01:53:30.267Z,4.70
2018-04-07T01:54:30.325Z,4.74
2018-04-07T01:55:30.265Z,4.77
2018-04-07T01:56:30.327Z,4.82
2018-04-07T01:57:30.271Z,4.91
2018-04-07T01:58:30.210Z,4.98
2018-04-07T01:59:30.201Z,5.06
2018-04-07T02:00:30.240Z,5.09
2018-04-07T02:01:30.329Z,5.16
2018-04-07T02:02:30.206Z,5.26
2018-04-07T02:03:30.208Z,5.37
2018-04-07T02:04:30.298Z,5.37
2018-04-07T02:05:30.233Z,5.38
2018-04-07T02:06:30.283Z,5.35
2018-04-07T02:07:30.298Z,5.30
2018-04-07T02:08:30.284Z,5.26
2018-04-07T02:09:30.236Z,5.23
2018-04-07T02:10:30.275Z,5.25
2018-04-07T02:11:30.211Z,5.25
2018-04-07T02:12:30.338Z,5.25
2018-04-07T02:13:30.335Z,5.29
2018-04-07T02:14:30.311Z,5.33
2018-04-07T02:15:30.287Z,5.35
2018-04-07T02:16:30.330Z,5.38
2018-04-07T02:17:30.216Z,5.37
2018-04-07T02:18:30.288Z,5.37
2018-04-07T02:19:30.317Z,5.38
2018-04-07T02:20:30.330Z,5.38
2018-04-07T02:21:30.244Z,5.35
2018-04-07T02:22:30.250Z,5.40
2018-04-07T02:23:30.336Z,5.46
2018-04-07T02:24:30.261Z,5.49
2018-04-07T02:25:30.230Z,5.51
2018-04-07T02:26:30.339Z,5.51
2018-04-07T02:27:30.336Z,5.52
2018-04-07T02:28:30.222Z,5.52
2018-04-07T02:29:30.295Z,5.49
2018-04-07T02:30:30.248Z,5.46
2018-04-07T02:31:30.328Z,5.44
2018-04-07T02:32:30.232Z,5.44
2018-04-07T02:33:30.234Z,5.42
2018-04-07T02:34:30.358Z,5.40
2018-04-07T02:35:30.291Z,5.38
2018-04-07T02:36:30.341Z,5.35
2018-04-07T02:37:30.326Z,5.38
2018-04-07T02:38:30.232Z,5.38
2018-04-07T02:39:30.228Z,5.34
2018-04-07T02:40:30.351Z,5.27
2018-04-07T02:41:30.304Z,5.23
2018-04-07T02:42:30.325Z,5.19
2018-04-07T02:43:30.239Z,5.14
2018-04-07T02:44:30.333Z,5.07
2018-04-07T02:45:30.344Z,5.00
2018-04-07T02:46:30.264Z,4.96
2018-04-07T02:47:30.297Z,4.93
2018-04-07T02:48:30.329Z,4.89
2018-04-07T02:49:30.267Z,4.91
2018-04-07T02:50:30.313Z,4.92
2018-04-07T02:51:30.269Z,4.96
2018-04-07T02:52:30.354Z,4.95
2018-04-07T02:53:30.358Z,4.95
2018-04-07T02:54:30.240Z,4.92
2018-04-07T02:55:30.271Z,4.93
2018-04-07T02:56:30.268Z,4.95
2018-04-07T02:57:30.275Z,4.92
2018-04-07T02:58:30.244Z,4.89
2018-04-07T02:59:30.307Z,4.88
2018-04-07T03:00:30.336Z,4.85
2018-04-07T03:01:30.359Z,4.84
2018-04-07T03:02:30.254Z,4.78
2018-04-07T03:03:30.243Z,4.77
2018-04-07T03:04:30.316Z,4.75
2018-04-07T03:05:30.344Z,4.73
2018-04-07T03:06:30.362Z,4.74
2018-04-07T03:07:30.308Z,4.74
2018-04-07T03:08:30.345Z,4.77
2018-04-07T03:09:30.375Z,4.78
2018-04-07T03:10:30.365Z,4.77
2018-04-07T03:11:30.274Z,4.73
2018-04-07T03:12:30.350Z,4.69
2018-04-07T03:13:30.279Z,4.64
2018-04-07T03:14:30.370Z,4.60
2018-04-07T03:15:30.324Z,4.55
2018-04-07T03:16:30.262Z,4.55
2018-04-07T03:17:30.344Z,4.54
2018-04-07T03:18:30.346Z,4.57
2018-04-07T03:19:30.258Z,4.55
2018-04-07T03:20:30.327Z,4.52
2018-04-07T03:21:30.375Z,4.54
2018-04-07T03:22:30.264Z,4.54
2018-04-07T03:23:30.378Z,4.52
2018-04-07T03:24:30.375Z,4.59
2018-04-07T03:25:30.383Z,4.62
2018-04-07T03:26:30.288Z,4.62
2018-04-07T03:27:30.372Z,4.63
2018-04-07T03:28:30.379Z,4.69
2018-04-07T03:29:30.378Z,4.67
2018-04-07T03:30:30.375Z,4.66
2018-04-07T03:31:30.296Z,4.62
2018-04-07T03:32:30.299Z,4.57
2018-04-07T03:33:30.266Z,4.60
2018-04-07T03:34:30.381Z,4.60
2018-04-07T03:35:30.331Z,4.63
2018-04-07T03:36:30.384Z,4.63
2018-04-07T03:37:30.358Z,4.66
2018-04-07T03:38:30.333Z,4.69
2018-04-07T03:39:30.359Z,4.64
2018-04-07T03:40:30.295Z,4.67
2018-04-07T03:41:30.357Z,4.67
2018-04-07T03:42:30.366Z,4.66
2018-04-07T03:43:30.303Z,4.60
2018-04-07T03:44:30.389Z,4.51
2018-04-07T03:45:30.333Z,4.47
2018-04-07T03:46:30.364Z,4.41
2018-04-07T03:47:30.299Z,4.35
2018-04-07T03:48:30.303Z,4.29
2018-04-07T03:49:30.336Z,4.29
2018-04-07T03:50:30.278Z,4.26
2018-04-07T03:51:30.369Z,4.24
2018-04-07T03:52:30.397Z,4.19
2018-04-07T03:53:30.286Z,4.15
2018-04-07T03:54:30.347Z,4.14
2018-04-07T03:55:30.341Z,4.11
2018-04-07T03:56:30.349Z,4.06
2018-04-07T03:57:30.369Z,4.01
2018-04-07T03:58:30.342Z,3.96
2018-04-07T03:59:30.352Z,3.90
2018-04-07T04:00:30.404Z,3.81
2018-04-07T04:01:30.391Z,3.76
2018-04-07T04:02:30.370Z,3.72
2018-04-07T04:03:30.350Z,3.66
2018-04-07T04:04:30.350Z,3.61
2018-04-07T04:05:30.310Z,3.58
2018-04-07T04:06:30.393Z,3.55
2018-04-07T04:07:30.318Z,3.54
2018-04-07T04:08:30.319Z,3.53
2018-04-07T04:09:30.288Z,3.48
2018-04-07T04:10:30.405Z,3.46
2018-04-07T04:11:30.402Z,3.42
2018-04-07T04:12:30.289Z,3.37
2018-04-07T04:13:30.351Z,3.33
2018-04-07T04:14:30.408Z,3.29
2018-04-07T04:15:30.403Z,3.25
2018-04-07T04:16:30.404Z,3.17
2018-04-07T04:17:30.297Z,3.12
2018-04-07T04:18:30.389Z,3.06
2018-04-07T04:19:30.364Z,2.99
2018-04-07T04:20:30.381Z,2.92
2018-04-07T04:21:30.317Z,2.85
2018-04-07T04:22:30.357Z,2.80
2018-04-07T04:23:30.296Z,2.85
2018-04-07T04:24:30.359Z,2.84
2018-04-07T04:25:30.323Z,2.84
2018-04-07T04:26:30.320Z,2.83
2018-04-07T04:27:30.299Z,2.84
2018-04-07T04:28:30.391Z,2.88
2018-04-07T04:29:30.414Z,2.91
2018-04-07T04:30:30.297Z,2.96
2018-04-07T04:31:30.414Z,2.98
2018-04-07T04:32:30.324Z,3.05
2018-04-07T04:33:30.421Z,3.09
2018-04-07T04:34:30.418Z,3.14
2018-04-07T04:35:30.417Z,3.21
2018-04-07T04:36:30.344Z,3.25
2018-04-07T04:37:30.368Z,3.28
2018-04-07T04:38:30.417Z,3.28
2018-04-07T04:39:30.333Z,3.21
2018-04-07T04:40:30.364Z,3.20
2018-04-07T04:41:30.308Z,3.14
2018-04-07T04:42:30.505Z,3.16
2018-04-07T04:43:30.377Z,3.12
2018-04-07T04:44:30.422Z,3.09
2018-04-07T04:45:30.376Z,3.07
2018-04-07T04:46:30.342Z,3.05
2018-04-07T04:47:30.423Z,3.01
2018-04-07T04:48:30.430Z,3.02
2018-04-07T04:49:30.341Z,3.05
2018-04-07T04:50:30.320Z,3.10
2018-04-07T04:51:30.423Z,3.09
2018-04-07T04:52:30.431Z,3.03
2018-04-07T04:53:30.346Z,3.05
2018-04-07T04:54:30.310Z,3.05
2018-04-07T04:55:30.381Z,3.09
2018-04-07T04:56:30.310Z,3.10
2018-04-07T04:57:30.374Z,3.10
2018-04-07T04:58:30.308Z,3.10
2018-04-07T04:59:30.369Z,3.12
2018-04-07T05:00:30.405Z,3.13
2018-04-07T05:01:30.385Z,3.13
2018-04-07T05:02:30.429Z,3.12
2018-04-07T05:03:30.313Z,3.13
2018-04-07T05:04:30.404Z,3.12
2018-04-07T05:05:30.408Z,3.13
2018-04-07T05:06:30.376Z,3.21
2018-04-07T05:07:30.312Z,3.20
2018-04-07T05:08:30.445Z,3.21
2018-04-07T05:09:30.432Z,3.24
2018-04-07T05:10:30.471Z,3.24
2018-04-07T05:11:30.396Z,3.28
2018-04-07T05:12:30.442Z,3.28
2018-04-07T05:13:30.417Z,3.26
2018-04-07T05:14:30.448Z,3.25
2018-04-07T05:15:30.318Z,3.24
2018-04-07T05:16:30.416Z,3.26
2018-04-07T05:17:30.352Z,3.25
2018-04-07T05:18:30.327Z,3.28
2018-04-07T05:19:30.325Z,3.31
2018-04-07T05:20:30.323Z,3.32
2018-04-07T05:21:30.418Z,3.33
2018-04-07T05:22:30.357Z,3.39
2018-04-07T05:23:30.357Z,3.46
2018-04-07T05:24:30.422Z,3.48
2018-04-07T05:25:30.353Z,3.53
2018-04-07T05:26:30.330Z,3.53
2018-04-07T05:27:30.354Z,3.54
2018-04-07T05:28:30.445Z,3.58
2018-04-07T05:29:30.364Z,3.59
2018-04-07T05:30:30.366Z,3.59
2018-04-07T05:31:30.362Z,3.64
2018-04-07T05:32:30.448Z,3.68
2018-04-07T05:33:30.360Z,3.69
2018-04-07T05:34:30.336Z,3.72
2018-04-07T05:35:30.401Z,3.76
2018-04-07T05:36:30.351Z,3.78
2018-04-07T05:37:30.460Z,3.83
2018-04-07T05:38:30.336Z,3.89
2018-04-07T05:39:30.339Z,3.95
2018-04-07T05:40:30.382Z,3.99
2018-04-07T05:41:30.434Z,4.08
2018-04-07T05:42:30.397Z,4.15
2018-04-07T05:43:30.436Z,4.21
2018-04-07T05:44:30.427Z,4.24
2018-04-07T05:45:30.462Z,4.28
2018-04-07T05:46:30.461Z,4.33
2018-04-07T05:47:30.465Z,4.43
2018-04-07T05:48:30.462Z,4.50
2018-04-07T05:49:30.401Z,4.54
2018-04-07T05:50:30.463Z,4.60
2018-04-07T05:51:30.460Z,4.67
2018-04-07T05:52:30.403Z,4.71
2018-04-07T05:53:30.459Z,4.81
2018-04-07T05:54:30.441Z,4.89
2018-04-07T05:55:30.404Z,5.02
2018-04-07T05:56:30.463Z,5.16
2018-04-07T05:57:30.356Z,5.27
2018-04-07T05:58:30.403Z,5.37
2018-04-07T05:59:30.380Z,5.42
2018-04-07T06:00:30.396Z,5.44
2018-04-07T06:01:30.378Z,5.49
2018-04-07T06:02:30.383Z,5.53
2018-04-07T06:03:30.468Z,5.59
2018-04-07T06:04:30.382Z,5.64
2018-04-07T06:05:30.472Z,5.74
2018-04-07T06:06:30.425Z,5.84
2018-04-07T06:07:30.360Z,5.95
2018-04-07T06:08:30.356Z,6.06
2018-04-07T06:09:30.438Z,6.19
2018-04-07T06:10:30.474Z,6.29
2018-04-07T06:11:30.361Z,6.37
2018-04-07T06:12:30.365Z,6.47
2018-04-07T06:13:30.484Z,6.55
2018-04-07T06:14:30.480Z,6.60
2018-04-07T06:15:30.361Z,6.67
2018-04-07T06:16:30.433Z,6.71
2018-04-07T06:17:30.432Z,6.81
2018-04-07T06:18:30.480Z,6.87
2018-04-07T06:19:30.388Z,6.95
2018-04-07T06:20:30.397Z,7.02
2018-04-07T06:21:30.459Z,7.11
2018-04-07T06:22:30.391Z,7.23
2018-04-07T06:23:30.398Z,7.31
2018-04-07T06:24:30.478Z,7.35
2018-04-07T06:25:30.458Z,7.51
2018-04-07T06:26:30.511Z,7.52
2018-04-07T06:27:30.431Z,7.58
2018-04-07T06:28:30.359Z,7.59
2018-04-07T06:29:30.443Z,7.65
2018-04-07T06:30:30.400Z,7.70
2018-04-07T06:31:30.401Z,7.78
2018-04-07T06:32:30.513Z,7.92
2018-04-07T06:33:30.370Z,7.86
2018-04-07T06:34:30.441Z,7.86
2018-04-07T06:35:30.383Z,7.90
2018-04-07T06:36:30.371Z,7.93
2018-04-07T06:37:30.439Z,8.04
2018-04-07T06:38:30.396Z,8.16
2018-04-07T06:39:30.487Z,8.22
2018-04-07T06:40:30.489Z,8.35
2018-04-07T06:41:30.466Z,8.47
2018-04-07T06:42:30.460Z,8.53
2018-04-07T06:43:30.494Z,8.62
2018-04-07T06:44:30.373Z,8.71
2018-04-07T06:45:30.490Z,8.72
2018-04-07T06:46:30.388Z,8.68
2018-04-07T06:47:30.407Z,8.71
2018-04-07T06:48:30.469Z,8.85
2018-04-07T06:49:30.410Z,8.85
2018-04-07T06:50:30.474Z,8.93
2018-04-07T06:51:30.379Z,9.04
2018-04-07T06:52:30.472Z,9.09
2018-04-07T06:53:30.508Z,9.12
2018-04-07T06:54:30.443Z,9.19
2018-04-07T06:55:30.384Z,9.18
2018-04-07T06:56:30.450Z,9.04
2018-04-07T06:57:30.497Z,9.09
2018-04-07T06:58:30.452Z,9.12
2018-04-07T06:59:30.479Z,9.05
2018-04-07T07:00:30.508Z,9.09
2018-04-07T07:01:30.432Z,9.16
2018-04-07T07:02:30.389Z,9.25
2018-04-07T07:03:30.477Z,9.42
2018-04-07T07:04:30.459Z,9.49
2018-04-07T07:05:30.515Z,9.53
2018-04-07T07:06:30.484Z,9.51
2018-04-07T07:07:30.415Z,9.51
2018-04-07T07:08:30.510Z,9.58
2018-04-07T07:09:30.556Z,9.62
2018-04-07T07:10:30.392Z,9.71
2018-04-07T07:11:30.479Z,9.71
2018-04-07T07:12:30.506Z,9.83
2018-04-07T07:13:30.404Z,9.87
2018-04-07T07:14:30.487Z,9.86
2018-04-07T07:15:30.392Z,9.84
2018-04-07T07:16:30.525Z,9.90
2018-04-07T07:17:30.430Z,9.86
2018-04-07T07:18:30.464Z,9.83
2018-04-07T07:19:30.520Z,9.78
2018-04-07T07:20:30.390Z,9.78
2018-04-07T07:21:30.410Z,9.80
2018-04-07T07:22:30.430Z,9.76
2018-04-07T07:23:30.514Z,9.79
2018-04-07T07:24:30.521Z,9.93
2018-04-07T07:25:30.434Z,10.00
2018-04-07T07:26:30.448Z,10.08
2018-04-07T07:27:30.404Z,10.11
2018-04-07T07:28:30.478Z,10.17
2018-04-07T07:29:30.500Z,10.21
2018-04-07T07:30:30.474Z,10.24
2018-04-07T07:31:30.404Z,10.20
2018-04-07T07:32:30.423Z,10.27
2018-04-07T07:33:30.470Z,10.36
2018-04-07T07:34:30.451Z,10.43
2018-04-07T07:35:30.511Z,10.54
2018-04-07T07:36:30.571Z,10.67
2018-04-07T07:37:30.572Z,10.81
2018-04-07T07:38:30.579Z,10.81
2018-04-07T07:39:30.546Z,10.83
2018-04-07T07:40:30.568Z,10.90
2018-04-07T07:41:30.552Z,11.05
2018-04-07T07:42:30.452Z,11.11
2018-04-07T07:43:30.469Z,11.31
2018-04-07T07:44:30.525Z,11.35
2018-04-07T07:45:30.555Z,11.25
2018-04-07T07:46:30.569Z,11.07
2018-04-07T07:47:30.461Z,11.07
2018-04-07T07:48:30.581Z,11.06
2018-04-07T07:49:30.534Z,11.06
2018-04-07T07:50:30.573Z,11.20
2018-04-07T07:51:30.554Z,11.25
2018-04-07T07:52:30.513Z,11.22
2018-04-07T07:53:30.585Z,11.35
2018-04-07T07:54:30.528Z,11.47
2018-04-07T07:55:30.593Z,11.51
2018-04-07T07:56:30.479Z,11.47
2018-04-07T07:57:30.594Z,11.60
2018-04-07T07:58:30.560Z,11.67
2018-04-07T07:59:30.521Z,11.73
2018-04-07T08:00:30.493Z,11.80
2018-04-07T08:01:30.529Z,11.98
2018-04-07T08:02:30.532Z,12.10
2018-04-07T08:03:30.534Z,12.13
2018-04-07T08:04:30.588Z,12.14
2018-04-07T08:05:30.565Z,12.26
2018-04-07T08:06:30.495Z,12.37
2018-04-07T08:07:30.569Z,12.47
2018-04-07T08:08:30.471Z,12.61
2018-04-07T08:09:30.570Z,12.68
2018-04-07T08:10:30.498Z,12.82
2018-04-07T08:11:30.571Z,12.92
2018-04-07T08:12:30.498Z,13.06
2018-04-07T08:13:30.575Z,12.94
2018-04-07T08:14:30.501Z,12.86
2018-04-07T08:15:30.503Z,12.87
2018-04-07T08:16:30.573Z,12.92
2018-04-07T08:17:30.521Z,12.92
2018-04-07T08:18:30.577Z,12.91
2018-04-07T08:19:30.507Z,13.05
2018-04-07T08:20:30.580Z,13.12
2018-04-07T08:21:30.505Z,13.24
2018-04-07T08:22:30.592Z,13.32
2018-04-07T08:23:30.508Z,13.21
2018-04-07T08:24:30.582Z,13.29
2018-04-07T08:25:30.508Z,13.14
2018-04-07T08:26:30.587Z,13.20
2018-04-07T08:27:30.508Z,13.21
2018-04-07T08:28:30.578Z,13.42
2018-04-07T08:29:30.513Z,13.59
2018-04-07T08:30:30.597Z,13.76
2018-04-07T08:31:30.515Z,13.70
2018-04-07T08:32:30.581Z,13.77
2018-04-07T08:33:30.513Z,13.62
2018-04-07T08:34:30.581Z,13.53
2018-04-07T08:35:30.540Z,13.42
2018-04-07T08:36:30.610Z,13.39
2018-04-07T08:37:30.590Z,13.36
2018-04-07T08:38:30.609Z,13.32
2018-04-07T08:39:30.671Z,13.35
2018-04-07T08:40:30.614Z,13.43
2018-04-07T08:41:30.493Z,13.65
2018-04-07T08:42:30.585Z,13.88
2018-04-07T08:43:30.620Z,13.95
2018-04-07T08:44:30.611Z,13.79
2018-04-07T08:45:30.493Z,13.86
2018-04-07T08:46:30.511Z,13.72
2018-04-07T08:47:30.566Z,13.86
2018-04-07T08:48:30.551Z,14.20
2018-04-07T08:49:30.571Z,14.11
2018-04-07T08:50:30.623Z,14.20
2018-04-07T08:51:30.557Z,14.39
2018-04-07T08:52:30.558Z,14.66
2018-04-07T08:53:30.654Z,14.98
2018-04-07T08:54:30.532Z,15.29
2018-04-07T08:55:30.653Z,15.35
2018-04-07T08:56:30.621Z,15.07
2018-04-07T08:57:30.596Z,14.95
2018-04-07T08:58:30.625Z,14.73
2018-04-07T08:59:30.629Z,14.92
2018-04-07T09:00:30.568Z,14.92
2018-04-07T09:01:30.566Z,15.14
2018-04-07T09:02:30.629Z,15.19
2018-04-07T09:03:30.601Z,15.26
2018-04-07T09:04:30.558Z,15.46
2018-04-07T09:05:30.619Z,15.62
2018-04-07T09:06:30.603Z,15.82
2018-04-07T09:07:30.519Z,16.06
2018-04-07T09:08:30.564Z,16.32
2018-04-07T09:09:30.629Z,16.54
2018-04-07T09:10:30.661Z,16.69
2018-04-07T09:11:30.522Z,16.57
2018-04-07T09:12:30.577Z,16.46
2018-04-07T09:13:30.570Z,16.20
2018-04-07T09:14:30.512Z,16.11
2018-04-07T09:15:30.610Z,16.25
2018-04-07T09:16:30.546Z,15.91
2018-04-07T09:17:30.517Z,15.91
2018-04-07T09:18:30.599Z,16.05
2018-04-07T09:19:30.675Z,16.29
2018-04-07T09:20:30.602Z,16.24
2018-04-07T09:21:30.519Z,15.94
2018-04-07T09:22:30.597Z,15.91
2018-04-07T09:23:30.593Z,15.79
2018-04-07T09:24:30.565Z,15.82
2018-04-07T09:25:30.642Z,16.02
2018-04-07T09:26:30.584Z,16.18
2018-04-07T09:27:30.516Z,16.29
2018-04-07T09:28:30.650Z,16.35
2018-04-07T09:29:30.616Z,16.28
2018-04-07T09:30:30.524Z,16.25
2018-04-07T09:31:30.653Z,16.41
2018-04-07T09:32:30.522Z,16.54
2018-04-07T09:33:30.599Z,16.69
2018-04-07T09:34:30.618Z,16.90
2018-04-07T09:35:30.644Z,16.74
2018-04-07T09:36:30.589Z,16.54
2018-04-07T09:37:30.522Z,16.41
2018-04-07T09:38:30.529Z,16.55
2018-04-07T09:39:30.654Z,16.54
2018-04-07T09:40:30.525Z,16.66
2018-04-07T09:41:30.547Z,16.79
2018-04-07T09:42:30.545Z,16.76
2018-04-07T09:43:30.587Z,16.98
2018-04-07T09:44:30.588Z,16.92
2018-04-07T09:45:30.646Z,16.79
2018-04-07T09:46:30.534Z,16.79
2018-04-07T09:47:30.595Z,16.85
2018-04-07T09:48:30.655Z,17.05
2018-04-07T09:49:30.652Z,17.18
2018-04-07T09:50:30.630Z,17.05
2018-04-07T09:51:30.631Z,17.05
2018-04-07T09:52:30.603Z,17.18
2018-04-07T09:53:30.634Z,17.36
2018-04-07T09:54:30.657Z,17.29
2018-04-07T09:55:30.560Z,17.18
2018-04-07T09:56:30.614Z,16.94
2018-04-07T09:57:30.637Z,16.95
2018-04-07T09:58:30.531Z,17.05
2018-04-07T09:59:30.616Z,17.06
2018-04-07T10:00:30.600Z,17.08
2018-04-07T10:01:30.637Z,17.03
2018-04-07T10:02:30.606Z,17.01
2018-04-07T10:03:30.596Z,17.05
2018-04-07T10:04:30.673Z,17.33
2018-04-07T10:05:30.631Z,17.51
2018-04-07T10:06:30.510Z,17.54
2018-04-07T10:07:30.594Z,17.53
2018-04-07T10:08:30.547Z,17.65
2018-04-07T10:09:30.571Z,17.75
2018-04-07T10:10:30.583Z,17.65
2018-04-07T10:11:30.632Z,17.66
2018-04-07T10:12:30.537Z,17.47
2018-04-07T10:13:30.645Z,17.47
2018-04-07T10:14:30.635Z,17.61
2018-04-07T10:15:30.579Z,17.83
2018-04-07T10:16:30.617Z,17.92
2018-04-07T10:17:30.583Z,17.94
2018-04-07T10:18:30.569Z,17.85
2018-04-07T10:19:30.679Z,17.80
2018-04-07T10:20:30.653Z,17.83
2018-04-07T10:21:30.670Z,17.77
2018-04-07T10:22:30.555Z,17.85
2018-04-07T10:23:30.852Z,17.75
2018-04-07T10:24:30.624Z,17.76
2018-04-07T10:25:30.652Z,17.95
2018-04-07T10:26:30.586Z,18.16
2018-04-07T10:27:30.658Z,18.24
2018-04-07T10:28:30.582Z,18.44
2018-04-07T10:29:30.659Z,18.46
2018-04-07T10:30:30.588Z,18.41
2018-04-07T10:31:30.657Z,18.50
2018-04-07T10:32:30.585Z,18.59
2018-04-07T10:33:30.659Z,18.70
2018-04-07T10:34:30.663Z,18.81
2018-04-07T10:35:30.635Z,18.87
2018-04-07T10:36:30.681Z,18.73
2018-04-07T10:37:30.693Z,18.68
2018-04-07T10:38:30.666Z,18.83
2018-04-07T10:39:30.682Z,18.84
2018-04-07T10:40:30.685Z,18.65
2018-04-07T10:41:30.689Z,18.72
2018-04-07T10:42:30.661Z,18.79
2018-04-07T10:43:30.682Z,18.92
2018-04-07T10:44:30.659Z,18.84
2018-04-07T10:45:30.642Z,18.99
2018-04-07T10:46:30.691Z,19.09
2018-04-07T10:47:30.668Z,19.01
2018-04-07T10:48:30.563Z,19.02
2018-04-07T10:49:30.587Z,19.09
2018-04-07T10:50:30.634Z,19.32
2018-04-07T10:51:30.644Z,19.35
2018-04-07T10:52:30.704Z,19.19
2018-04-07T10:53:30.636Z,19.32
2018-04-07T10:54:30.580Z,19.08
2018-04-07T10:55:30.692Z,19.10
2018-04-07T10:56:30.698Z,19.01
2018-04-07T10:57:30.614Z,19.02
2018-04-07T10:58:30.702Z,19.13
2018-04-07T10:59:30.668Z,18.99
2018-04-07T11:00:30.613Z,19.19
2018-04-07T11:01:30.594Z,19.28
2018-04-07T11:02:30.648Z,19.32
2018-04-07T11:03:30.639Z,19.16
2018-04-07T11:04:30.633Z,19.20
2018-04-07T11:05:30.702Z,19.08
2018-04-07T11:06:30.698Z,19.20
2018-04-07T11:07:30.638Z,19.25
2018-04-07T11:08:30.695Z,19.31
2018-04-07T11:09:30.636Z,19.27
2018-04-07T11:10:30.604Z,19.29
2018-04-07T11:11:30.714Z,19.49
2018-04-07T11:12:30.649Z,19.57
2018-04-07T11:13:30.680Z,19.57
2018-04-07T11:14:30.636Z,19.62
2018-04-07T11:15:30.638Z,19.77
2018-04-07T11:16:30.609Z,19.77
2018-04-07T11:17:30.607Z,19.83
2018-04-07T11:18:30.714Z,19.95
2018-04-07T11:19:30.710Z,20.02
2018-04-07T11:20:30.684Z,19.91
2018-04-07T11:21:30.647Z,19.96
2018-04-07T11:22:30.653Z,19.90
2018-04-07T11:23:30.644Z,19.98
2018-04-07T11:24:30.713Z,20.02
2018-04-07T11:25:30.690Z,19.80
2018-04-07T11:26:30.624Z,19.84
2018-04-07T11:27:30.692Z,19.90
2018-04-07T11:28:30.623Z,20.05
2018-04-07T11:29:30.695Z,20.14
2018-04-07T11:30:30.628Z,20.34
2018-04-07T11:31:30.694Z,20.57
2018-04-07T11:32:30.627Z,20.52
2018-04-07T11:33:30.697Z,20.50
2018-04-07T11:34:30.625Z,20.57
2018-04-07T11:35:30.694Z,20.65
2018-04-07T11:36:30.684Z,20.52
2018-04-07T11:37:30.688Z,20.65
2018-04-07T11:38:30.684Z,20.60
2018-04-07T11:39:30.660Z,20.45
2018-04-07T11:40:30.657Z,20.58
2018-04-07T11:41:30.604Z,20.82
2018-04-07T11:42:30.661Z,20.75
2018-04-07T11:43:30.639Z,20.79
2018-04-07T11:44:30.696Z,20.95
2018-04-07T11:45:30.642Z,20.93
2018-04-07T11:46:30.654Z,20.86
2018-04-07T11:47:30.633Z,20.98
2018-04-07T11:48:30.663Z,20.83
2018-04-07T11:49:30.577Z,21.02
2018-04-07T11:50:30.649Z,20.99
2018-04-07T11:51:30.576Z,20.95
2018-04-07T11:52:30.684Z,20.91
2018-04-07T11:53:30.633Z,21.02
2018-04-07T11:54:30.593Z,21.18
2018-04-07T11:55:30.661Z,21.34
2018-04-07T11:56:30.706Z,21.47
2018-04-07T11:57:30.712Z,21.64
2018-04-07T11:58:30.718Z,21.73
2018-04-07T11:59:30.756Z,21.67
2018-04-07T12:00:30.733Z,21.80
2018-04-07T12:01:30.689Z,21.84
2018-04-07T12:02:30.815Z,21.75
2018-04-07T12:03:30.714Z,21.61
2018-04-07T12:04:30.713Z,21.73
2018-04-07T12:05:30.632Z,21.69
2018-04-07T12:06:30.715Z,21.83
2018-04-07T12:07:30.649Z,21.80
2018-04-07T12:08:30.716Z,21.94
2018-04-07T12:09:30.648Z,22.00
2018-04-07T12:10:30.720Z,22.23
2018-04-07T12:11:30.697Z,22.35
2018-04-07T12:12:30.818Z,22.56
2018-04-07T12:13:30.716Z,22.61
2018-04-07T12:14:30.652Z,22.43
2018-04-07T12:15:30.720Z,22.45
2018-04-07T12:16:30.652Z,22.43
2018-04-07T12:17:30.719Z,22.25
2018-04-07T12:18:30.650Z,22.24
2018-04-07T12:19:30.719Z,22.19
2018-04-07T12:20:30.650Z,21.94
2018-04-07T12:21:30.720Z,22.04
2018-04-07T12:22:30.653Z,22.25
2018-04-07T12:23:30.737Z,22.43
2018-04-07T12:24:30.654Z,22.43
2018-04-07T12:25:30.719Z,22.56
2018-04-07T12:26:30.708Z,22.63
2018-04-07T12:27:30.713Z,22.94
2018-04-07T12:28:30.714Z,22.97
2018-04-07T12:29:30.644Z,22.98
2018-04-07T12:30:30.727Z,22.75
2018-04-07T12:31:30.635Z,22.57
2018-04-07T12:32:30.682Z,22.83
2018-04-07T12:33:30.717Z,22.84
2018-04-07T12:34:30.633Z,22.71
2018-04-07T12:35:30.679Z,22.67
2018-04-07T12:36:30.730Z,22.83
2018-04-07T12:37:30.666Z,22.70
2018-04-07T12:38:30.664Z,22.46
2018-04-07T12:39:30.734Z,22.45
2018-04-07T12:40:30.674Z,22.75
2018-04-07T12:41:30.733Z,23.02
2018-04-07T12:42:30.671Z,23.11
2018-04-07T12:43:30.739Z,23.19
2018-04-07T12:44:30.736Z,23.08
2018-04-07T12:45:30.672Z,23.01
2018-04-07T12:46:30.671Z,23.05
2018-04-07T12:47:30.669Z,22.95
2018-04-07T12:48:30.742Z,23.06
2018-04-07T12:49:30.674Z,22.98
2018-04-07T12:50:30.761Z,22.83
2018-04-07T12:51:30.679Z,22.83
2018-04-07T12:52:30.740Z,22.88
2018-04-07T12:53:30.674Z,23.01
2018-04-07T12:54:30.741Z,23.19
2018-04-07T12:55:30.678Z,23.26
2018-04-07T12:56:30.740Z,23.38
2018-04-07T12:57:30.609Z,23.30
2018-04-07T12:58:30.630Z,23.20
2018-04-07T12:59:30.737Z,23.24
2018-04-07T13:00:30.628Z,23.31
2018-04-07T13:01:30.733Z,23.33
2018-04-07T13:02:30.777Z,23.39
2018-04-07T13:03:30.629Z,23.56
2018-04-07T13:04:30.734Z,23.68
2018-04-07T13:05:30.703Z,23.79
2018-04-07T13:06:30.715Z,23.74
2018-04-07T13:07:30.755Z,23.75